Decoded Metar for LFKF (FIGARI in CORSE ISL.) (IATA:FSC) | Meteo·Mobile Aviation Weather
aviador You're here:

LFKF Decoded Metar

FIGARI in CORSE ISL.
Report Time2019-07-21 17:30:00
UTC Time2019-07-21 17:45:52
Flight Rules vfr VFR
WindVRB at 03 kt
Visibility9999 m
Phenomena:N/A
Clouds:Few 001 Hf
Expected CloudBase > 6,400 ft AGL from Temp-Dew spread
CeilingNone
Temp31°C (ISA +16)
Dew Point15°C (38% RH)
Heat Index30.6°C
QNH1019 hPa
Density Alt1,949 ft
Elevation75 ft
Report Wrong Elevation
Raw Report
LFKF 211730Z AUTO VRB03KT 9999 FEW001 31/15 Q1019 NOSIG=

Extra information for LFKF:More info

Metar Taf Metar & Taf Last 4 Metars F.Rules Stats Wind Profile Meteogram Temp Stats Airport Information Weather charts Add Link Nearby VenuesMetar ALERT Operation Metar Decoded Social comments